Ararat, Virginia
Current Conditions -  °F | °C
As of 12:15 PM on Thursday 18 Dec 2014 (Local Time) from KMWK Reporting Station
Overcast Overcast  
Wind Chill:   Ceiling: 8000
Heat Index:   Visibility: 10mi
Dew Point: -6°   Wind: 5mph
Humidity: 43%   Direction: 30°NNE
Pressure: 30.14"   Gusts: NA
Location:  36.6°N, 80.51°W
Report Text: KMWK 181715Z AUTO 03004KT 10SM OVC080 06/M06 A3014 RMK AO2 T00551061
Loading
Personal Weather Stations






























Interactive Weather Map New forecast layout! Learn more

10-Day Weather Forecast

Advertisements
Track Severe Weather on mobile